Terminal Aerodrome Forecast
Issued by NWS

Home | Current Version | Previous Version | Text Only | Print | Product List | Glossary On
Versions: 1 2 3 4 5 6 7 8 9 10 11 12 13 14 15 16
000
FTUS43 KDLH 281722
TAFBRD
TAF
KBRD 281722Z 2818/2918 17007KT P6SM SCT018
     FM282100 16010G16KT P6SM BKN040
     FM290000 17008KT P6SM VCTS BKN040CB
     FM290600 18010KT P6SM VCTS OVC035CB
     FM291200 19010KT P6SM VCTS OVC040CB=

USA.gov is the U.S. government's official web portal to all federal, state and local government web resources and services.